Aérodrome :
LOGIN :

S'inscrire | Disclaimer

   EN    FR    IT 

 










Légende :    VFR   VFR Marginal   IFR   IFR Intensif   IFR Très Intensif
Visi : 
Plafond : 
>= 8 km
>= 3000ft
5 à 8 km
1000 à 3000 ft
1500m à 5 km
500 à 1000 ft
800 à 1500m
200 à 500 ft
< 800m
< 200 ft
Symboles :   Orages  Brouillard  Fortes neiges  Fortes précipitations  Vent > 20 kt
SIGMETs :   Divers  Orages  Givrage  Turbulence  Onde Orograph.  Cendres Volcan.







- Altitude de l'aérodrome : 512 ft
- Code IATA : URO
- Voir les cartes d'approche


LFOP - Rouen Vallée de Seine

DERNIER METAR :
  • 210000Z AUTO 33010KT 9999 BKN013 OVC019 06/04 Q1009

METARs EXPIRÉS :
  • 202330Z AUTO 34011KT 9999 BKN012 OVC021 06/05 Q1009
  • 202300Z AUTO 34013KT 9999 OVC010 07/06 Q1008
  • 202230Z AUTO 34013KT 9999 BKN009 OVC013 08/06 Q1007
  • 202200Z AUTO 31014KT 9999 DZ BKN012 BKN017 OVC023 08/07 Q1006
  • 202130Z AUTO 31012KT 9000 -RADZ OVC012 09/07 Q1005

TAF TAF LFOP
Valide du 20 à 18h jusqu'au 21 à 18h UTC


201700Z 2018/2118 29014KT 9999 BKN013
TEMPO 2018/2023 29020G30KT 3000 RA BKN006 BKN013TCU
FM202300 33007KT 9999 BKN016
BECMG 2105/2107 4000 RA OVC008
TEMPO 2107/2118 2000 RADZ OVC003
BECMG 2109/2112 16012KT
ATIS : +33 2 35 80 80 34
Météo : +33 2 32 86 52 80
Pas de NOTAMs connus pour ce terrain.
1 SIGMET publié pour la FIR Paris (LFFF) :
 
Turbulence forte
LFFF SIGMET 8 VALID 202100/210100 LFPW
LFFF PARIS FIR/UIR SEV TURB FCST NE OF LINE N5100 E00145 - N4815 E00530 FL180/290 MOV NE 20KT NC=



MET'MAP, la Météo Aéronautique d'un coup d'oeil ! - Copyright ORBIFLY Décembre 2007 - Disclaimer

ORBIFLY MET'MAP TEAM :

Programmation & Développement : Alexandra Zaïnal
Conception & Développement : Baudouin d'Aumeries
Co-Programmation & Développement : Marc-Olivier Méhu
Soutien technique & logistique : Manuel Goepfert

Contact : metmap@orbifly.com




SOURCES & CREDITS :

   NOAA